Aviation Digital Data Service (ADDS)

Output produced by TAFs form (1150 UTC 25 October 2014)
found at http://aviationweather.gov/adds/tafs/
 
KDMN 251120Z 2512/2612 30006KT P6SM SKC 
     FM252100 23009KT P6SM FEW250 
     FM260300 28005KT P6SM FEW250